createdAt,value
2019-04-30T00:00:38.177Z,73.30
2019-04-30T00:03:22.632Z,67.70
2019-04-30T00:05:53.795Z,71.60
2019-04-30T00:08:25.591Z,72.50
2019-04-30T00:10:55.499Z,71.40
2019-04-30T00:13:25.888Z,71.80
2019-04-30T00:15:58.766Z,70.80
2019-04-30T00:18:30.773Z,69.60
2019-04-30T00:20:58.262Z,72.30
2019-04-30T00:23:30.678Z,70.50
2019-04-30T00:26:04.987Z,70.80
2019-04-30T00:28:30.588Z,64.20
2019-04-30T00:31:00.336Z,66.80
2019-04-30T00:33:29.930Z,60.20
2019-04-30T00:35:59.539Z,55.40
2019-04-30T00:38:29.583Z,52.80
2019-04-30T00:41:01.885Z,53.30
2019-04-30T00:43:31.826Z,51.90
2019-04-30T00:46:01.585Z,52.10
2019-04-30T00:48:31.384Z,52.80
2019-04-30T00:51:00.963Z,59.00
2019-04-30T00:53:30.559Z,66.40
2019-04-30T00:56:00.293Z,65.30
2019-04-30T00:58:30.401Z,66.10
2019-04-30T01:01:04.868Z,69.50
2019-04-30T01:03:35.217Z,72.10
2019-04-30T01:06:05.383Z,70.90
2019-04-30T01:08:35.845Z,71.90
2019-04-30T01:11:09.423Z,71.70
2019-04-30T01:13:38.911Z,69.50
2019-04-30T01:16:09.894Z,68.70
2019-04-30T01:18:39.519Z,67.70
2019-04-30T01:21:11.219Z,69.20
2019-04-30T01:23:47.879Z,69.30
2019-04-30T01:26:12.384Z,71.40
2019-04-30T01:28:42.192Z,76.80
2019-04-30T01:31:11.784Z,71.60
2019-04-30T01:33:41.383Z,74.70
2019-04-30T01:36:13.333Z,74.10
2019-04-30T01:38:44.791Z,74.60
2019-04-30T01:41:13.749Z,75.90
2019-04-30T01:43:43.344Z,75.70
2019-04-30T01:46:13.974Z,73.40
2019-04-30T01:48:47.988Z,70.00
2019-04-30T01:51:20.407Z,69.90
2019-04-30T01:53:46.431Z,69.30
2019-04-30T01:56:25.277Z,72.30
2019-04-30T01:59:02.237Z,70.90
2019-04-30T02:01:36.459Z,71.00
2019-04-30T02:04:06.089Z,71.80
2019-04-30T02:06:35.674Z,71.60
2019-04-30T02:09:09.097Z,77.70
2019-04-30T02:11:38.932Z,78.30
2019-04-30T02:14:09.055Z,78.90
2019-04-30T02:16:39.569Z,78.30
2019-04-30T02:19:09.256Z,75.30
2019-04-30T02:21:38.869Z,77.90
2019-04-30T02:24:08.950Z,79.70
2019-04-30T02:26:39.816Z,78.10
2019-04-30T02:29:09.399Z,76.70
2019-04-30T02:31:40.744Z,75.70
2019-04-30T02:34:12.120Z,78.30
2019-04-30T02:36:43.381Z,82.60
2019-04-30T02:39:12.971Z,81.80
2019-04-30T02:41:44.307Z,81.20
2019-04-30T02:44:15.609Z,80.00
2019-04-30T02:46:47.066Z,80.60
2019-04-30T02:49:20.417Z,80.00
2019-04-30T02:51:52.580Z,80.30
2019-04-30T02:54:29.451Z,80.60
2019-04-30T02:56:59.845Z,78.60
2019-04-30T02:59:30.010Z,79.90
2019-04-30T03:02:00.060Z,81.90
2019-04-30T03:04:29.726Z,83.40
2019-04-30T03:06:59.956Z,84.00
2019-04-30T03:09:29.909Z,83.40
2019-04-30T03:12:00.325Z,82.40
2019-04-30T03:14:30.349Z,83.00
2019-04-30T03:17:01.613Z,82.80
2019-04-30T03:19:41.892Z,81.50
2019-04-30T03:22:13.156Z,83.60
2019-04-30T03:24:43.179Z,82.40
2019-04-30T03:27:12.862Z,84.90
2019-04-30T03:29:42.487Z,84.10
2019-04-30T03:32:13.733Z,83.40
2019-04-30T03:34:43.503Z,82.90
2019-04-30T03:37:13.091Z,82.10
2019-04-30T03:39:42.672Z,81.30
2019-04-30T03:42:12.364Z,80.70
2019-04-30T03:44:42.279Z,80.10
2019-04-30T03:47:11.906Z,78.40
2019-04-30T03:49:41.527Z,77.60
2019-04-30T03:52:13.429Z,79.30
2019-04-30T03:54:42.551Z,81.50
2019-04-30T03:57:12.136Z,82.80
2019-04-30T03:59:41.875Z,84.30
2019-04-30T04:02:25.078Z,83.70
2019-04-30T04:05:12.465Z,84.30
2019-04-30T04:07:49.833Z,85.50
2019-04-30T04:10:23.087Z,86.30
2019-04-30T04:12:52.775Z,86.00
2019-04-30T04:15:22.385Z,85.70
2019-04-30T04:17:51.965Z,83.80
2019-04-30T04:20:21.571Z,81.80
2019-04-30T04:22:51.199Z,80.00
2019-04-30T04:25:20.930Z,81.10
2019-04-30T04:27:51.127Z,85.30
2019-04-30T04:30:22.368Z,82.90
2019-04-30T04:32:52.026Z,83.50
2019-04-30T04:35:21.615Z,84.90
2019-04-30T04:37:51.304Z,82.20
2019-04-30T04:40:21.352Z,80.60
2019-04-30T04:42:51.050Z,82.60
2019-04-30T04:45:20.714Z,80.60
2019-04-30T04:47:50.723Z,81.50
2019-04-30T04:50:20.569Z,82.20
2019-04-30T04:52:50.176Z,83.40
2019-04-30T04:55:22.102Z,83.10
2019-04-30T04:57:51.132Z,83.50
2019-04-30T05:00:21.085Z,77.10
2019-04-30T05:02:52.452Z,72.80
2019-04-30T05:05:22.084Z,69.20
2019-04-30T05:07:51.714Z,66.60
2019-04-30T05:10:21.342Z,64.60
2019-04-30T05:12:51.156Z,62.50
2019-04-30T05:15:20.747Z,59.20
2019-04-30T05:17:50.367Z,59.10
2019-04-30T05:20:19.994Z,59.60
2019-04-30T05:22:49.858Z,60.10
2019-04-30T05:25:19.467Z,61.20
2019-04-30T05:27:49.050Z,61.00
2019-04-30T05:30:19.882Z,61.00
2019-04-30T05:32:50.874Z,60.50
2019-04-30T05:35:20.576Z,61.60
2019-04-30T05:37:50.210Z,61.80
2019-04-30T05:40:19.801Z,60.50
2019-04-30T05:42:49.734Z,60.70
2019-04-30T05:45:19.810Z,62.60
2019-04-30T05:47:50.544Z,61.50
2019-04-30T05:50:20.495Z,61.10
2019-04-30T05:52:50.113Z,59.60
2019-04-30T05:55:19.989Z,59.90
2019-04-30T05:57:55.999Z,59.90
2019-04-30T06:00:21.315Z,59.40
2019-04-30T06:02:51.013Z,58.50
2019-04-30T06:05:20.676Z,58.50
2019-04-30T06:07:52.094Z,57.80
2019-04-30T06:10:24.314Z,57.50
2019-04-30T06:12:55.585Z,58.40
2019-04-30T06:15:28.971Z,58.20
2019-04-30T06:18:02.887Z,56.90
2019-04-30T06:20:29.894Z,56.90
2019-04-30T06:23:00.226Z,57.60
2019-04-30T06:25:37.340Z,57.30
2019-04-30T06:28:01.989Z,57.60
2019-04-30T06:30:32.489Z,57.50
2019-04-30T06:33:03.130Z,57.90
2019-04-30T06:35:33.164Z,58.90
2019-04-30T06:38:03.011Z,59.50
2019-04-30T06:40:32.676Z,58.90
2019-04-30T06:43:02.508Z,59.20
2019-04-30T06:45:34.551Z,59.10
2019-04-30T06:48:05.778Z,58.80
2019-04-30T06:50:35.476Z,59.40
2019-04-30T06:53:05.177Z,59.60
2019-04-30T06:55:34.902Z,59.50
2019-04-30T06:58:14.211Z,59.40
2019-04-30T07:00:39.954Z,61.70
2019-04-30T07:03:10.078Z,64.80
2019-04-30T07:05:39.744Z,66.70
2019-04-30T07:08:38.966Z,64.60
2019-04-30T07:11:16.208Z,65.90
2019-04-30T07:13:51.773Z,67.30
2019-04-30T07:16:19.138Z,70.40
2019-04-30T07:18:48.954Z,68.90
2019-04-30T07:21:19.894Z,71.10
2019-04-30T07:23:49.647Z,74.90
2019-04-30T07:26:24.247Z,75.20
2019-04-30T07:28:54.919Z,75.20
2019-04-30T07:31:21.999Z,75.60
2019-04-30T07:33:53.984Z,77.20
2019-04-30T07:36:23.038Z,76.80
2019-04-30T07:38:56.334Z,78.90
2019-04-30T07:41:23.987Z,78.40
2019-04-30T07:43:53.621Z,81.10
2019-04-30T07:46:23.226Z,80.60
2019-04-30T07:48:52.927Z,82.10
2019-04-30T07:51:23.203Z,83.40
2019-04-30T07:53:53.335Z,85.80
2019-04-30T07:56:27.859Z,84.30
2019-04-30T07:58:54.286Z,83.00
2019-04-30T08:01:23.881Z,82.90
2019-04-30T08:03:55.148Z,81.40
2019-04-30T08:06:24.926Z,82.00
2019-04-30T08:08:57.467Z,83.80
2019-04-30T08:11:26.537Z,85.30
2019-04-30T08:13:56.438Z,82.60
2019-04-30T08:16:28.753Z,82.60
2019-04-30T08:18:59.168Z,80.90
2019-04-30T08:21:28.945Z,83.00
2019-04-30T08:23:59.302Z,83.10
2019-04-30T08:26:29.813Z,82.60
2019-04-30T08:28:59.894Z,82.40
2019-04-30T08:31:29.544Z,84.50
2019-04-30T08:33:59.310Z,83.20
2019-04-30T08:36:29.813Z,81.60
2019-04-30T08:38:59.823Z,80.80
2019-04-30T08:41:29.630Z,81.00
2019-04-30T08:43:59.759Z,81.40
2019-04-30T08:46:29.633Z,82.30
2019-04-30T08:48:59.240Z,81.70
2019-04-30T08:51:31.040Z,81.50
2019-04-30T08:54:01.105Z,83.10
2019-04-30T08:56:30.729Z,83.40
2019-04-30T08:59:00.341Z,83.70
2019-04-30T09:01:30.007Z,85.80
2019-04-30T09:03:59.933Z,84.40
2019-04-30T09:06:30.349Z,85.90
2019-04-30T09:09:00.709Z,86.20
2019-04-30T09:11:38.575Z,85.10
2019-04-30T09:14:01.654Z,85.30
2019-04-30T09:16:31.267Z,84.90
2019-04-30T09:19:00.888Z,82.90
2019-04-30T09:21:30.478Z,83.90
2019-04-30T09:24:00.093Z,85.60
2019-04-30T09:26:29.721Z,84.90
2019-04-30T09:28:59.566Z,84.60
2019-04-30T09:31:29.745Z,85.70
2019-04-30T09:34:01.028Z,86.00
2019-04-30T09:36:30.762Z,86.20
2019-04-30T09:39:01.480Z,85.40
2019-04-30T09:41:31.364Z,86.90
2019-04-30T09:44:00.960Z,84.10
2019-04-30T09:46:30.586Z,84.10
2019-04-30T09:49:00.178Z,84.90
2019-04-30T09:51:30.917Z,86.80
2019-04-30T09:54:03.593Z,86.90
2019-04-30T09:56:32.174Z,85.60
2019-04-30T09:59:01.778Z,84.30
2019-04-30T10:01:32.910Z,84.60
2019-04-30T10:04:03.112Z,84.40
2019-04-30T10:06:39.783Z,82.80
2019-04-30T10:09:06.726Z,82.60
2019-04-30T10:11:43.965Z,84.40
2019-04-30T10:14:13.593Z,84.70
2019-04-30T10:17:00.786Z,84.40
2019-04-30T10:19:30.429Z,82.50
2019-04-30T10:22:00.134Z,80.20
2019-04-30T10:24:29.933Z,83.40
2019-04-30T10:27:02.440Z,81.20
2019-04-30T10:29:32.575Z,81.90
2019-04-30T10:32:02.205Z,85.00
2019-04-30T10:34:32.086Z,84.60
2019-04-30T10:37:02.958Z,83.70
2019-04-30T10:39:32.876Z,84.30
2019-04-30T10:42:02.839Z,84.40
2019-04-30T10:44:32.504Z,87.00
2019-04-30T10:47:02.139Z,84.30
2019-04-30T10:49:31.832Z,82.80
2019-04-30T10:52:01.433Z,83.50
2019-04-30T10:54:31.129Z,81.70
2019-04-30T10:57:00.791Z,78.90
2019-04-30T10:59:30.497Z,83.40
2019-04-30T11:02:00.163Z,84.00
2019-04-30T11:04:29.909Z,86.80
2019-04-30T11:07:00.549Z,80.20
2019-04-30T11:09:31.129Z,82.10
2019-04-30T11:12:03.046Z,81.40
2019-04-30T11:14:32.589Z,80.50
2019-04-30T11:17:02.537Z,79.70
2019-04-30T11:19:32.553Z,81.10
2019-04-30T11:22:02.613Z,84.20
2019-04-30T11:24:38.011Z,85.70
2019-04-30T11:27:04.219Z,80.90
2019-04-30T11:29:34.255Z,85.20
2019-04-30T11:32:06.055Z,84.80
2019-04-30T11:34:35.737Z,86.40
2019-04-30T11:37:05.397Z,85.20
2019-04-30T11:39:35.059Z,84.10
2019-04-30T11:42:05.094Z,81.20
2019-04-30T11:44:34.781Z,79.50
2019-04-30T11:47:24.906Z,81.80
2019-04-30T11:49:54.644Z,83.40
2019-04-30T11:52:24.506Z,83.00
2019-04-30T11:54:54.806Z,83.80
2019-04-30T11:57:24.731Z,82.40
2019-04-30T11:59:54.386Z,83.90
2019-04-30T12:02:32.163Z,80.70
2019-04-30T12:05:01.759Z,79.20
2019-04-30T12:07:35.442Z,80.30
2019-04-30T12:10:09.399Z,76.10
2019-04-30T12:12:39.194Z,80.00
2019-04-30T12:15:09.451Z,82.30
2019-04-30T12:17:39.123Z,84.10
2019-04-30T12:20:13.097Z,84.40
2019-04-30T12:22:42.731Z,83.20
2019-04-30T12:25:12.596Z,83.20
2019-04-30T12:27:42.190Z,75.50
2019-04-30T12:30:14.073Z,77.50
2019-04-30T12:32:43.670Z,78.50
2019-04-30T12:35:14.106Z,75.50
2019-04-30T12:37:43.698Z,75.90
2019-04-30T12:40:26.660Z,75.40
2019-04-30T12:42:45.890Z,74.70
2019-04-30T12:45:15.827Z,75.00
2019-04-30T12:47:49.843Z,74.50
2019-04-30T12:50:21.277Z,72.00
2019-04-30T12:52:52.526Z,73.40
2019-04-30T12:55:29.475Z,73.50
2019-04-30T12:58:01.617Z,71.80
2019-04-30T13:00:31.915Z,70.90
2019-04-30T13:03:01.546Z,70.20
2019-04-30T13:05:31.176Z,71.10
2019-04-30T13:08:01.361Z,69.20
2019-04-30T13:10:32.151Z,70.50
2019-04-30T13:13:02.496Z,68.90
2019-04-30T13:15:32.182Z,70.20
2019-04-30T13:18:01.774Z,68.70
2019-04-30T13:20:31.557Z,68.40
2019-04-30T13:23:01.239Z,66.50
2019-04-30T13:25:35.392Z,68.30
2019-04-30T13:28:03.778Z,68.20
2019-04-30T13:30:33.545Z,63.10
2019-04-30T13:33:13.546Z,66.50
2019-04-30T13:35:43.140Z,66.50
2019-04-30T13:38:23.331Z,64.70
2019-04-30T13:40:54.560Z,66.20
2019-04-30T13:43:25.808Z,63.50
2019-04-30T13:45:55.442Z,63.50
2019-04-30T13:48:25.031Z,64.00
2019-04-30T13:50:54.661Z,64.10
2019-04-30T13:53:24.290Z,64.20
2019-04-30T13:55:53.930Z,62.30
2019-04-30T13:58:23.522Z,62.70
2019-04-30T14:00:53.151Z,62.30
2019-04-30T14:03:24.383Z,63.70
2019-04-30T14:05:54.017Z,62.20
2019-04-30T14:08:28.983Z,59.90
2019-04-30T14:10:59.184Z,60.60
2019-04-30T14:13:28.950Z,59.90
2019-04-30T14:15:58.714Z,59.20
2019-04-30T14:18:33.783Z,59.40
2019-04-30T14:21:01.028Z,59.10
2019-04-30T14:23:30.706Z,59.00
2019-04-30T14:26:01.137Z,58.00
2019-04-30T14:28:30.915Z,58.20
2019-04-30T14:31:00.574Z,55.00
2019-04-30T14:33:30.168Z,54.70
2019-04-30T14:36:00.834Z,54.70
2019-04-30T14:38:30.613Z,53.90
2019-04-30T14:41:01.203Z,54.80
2019-04-30T14:43:33.606Z,56.80
2019-04-30T14:46:21.689Z,54.90
2019-04-30T14:48:53.819Z,53.40
2019-04-30T14:51:24.164Z,54.60
2019-04-30T14:54:00.995Z,55.10
2019-04-30T14:56:39.429Z,54.20
2019-04-30T14:59:28.813Z,54.70
2019-04-30T15:02:05.547Z,54.20
2019-04-30T15:04:35.180Z,54.00
2019-04-30T15:07:04.842Z,54.10
2019-04-30T15:09:34.555Z,54.30
2019-04-30T15:12:04.652Z,54.70
2019-04-30T15:14:34.261Z,53.60
2019-04-30T15:17:03.884Z,54.30
2019-04-30T15:19:33.478Z,53.80
2019-04-30T15:22:04.020Z,54.30
2019-04-30T15:24:39.277Z,52.90
2019-04-30T15:27:09.381Z,54.10
2019-04-30T15:29:39.320Z,55.40
2019-04-30T15:32:08.971Z,54.40
2019-04-30T15:34:40.842Z,54.80
2019-04-30T15:37:19.044Z,54.60
2019-04-30T15:39:41.483Z,54.90
2019-04-30T15:42:11.692Z,54.90
2019-04-30T15:44:45.237Z,55.60
2019-04-30T15:47:13.036Z,56.20
2019-04-30T15:49:42.754Z,55.70
2019-04-30T15:52:12.418Z,56.20
2019-04-30T15:54:42.051Z,56.40
2019-04-30T15:57:11.714Z,57.50
2019-04-30T15:59:41.718Z,58.40
2019-04-30T16:02:14.441Z,58.30
2019-04-30T16:05:01.541Z,57.50
2019-04-30T16:07:31.131Z,57.70
2019-04-30T16:10:12.600Z,58.50
2019-04-30T16:12:48.608Z,58.50
2019-04-30T16:15:19.188Z,57.30
2019-04-30T16:17:50.422Z,57.30
2019-04-30T16:20:20.135Z,58.40
2019-04-30T16:22:49.730Z,58.80
2019-04-30T16:25:19.507Z,58.10
2019-04-30T16:27:49.412Z,58.50
2019-04-30T16:30:19.615Z,58.60
2019-04-30T16:32:50.722Z,57.90
2019-04-30T16:35:20.434Z,57.50
2019-04-30T16:37:50.116Z,59.00
2019-04-30T16:40:21.362Z,57.90
2019-04-30T16:42:50.970Z,59.50
2019-04-30T16:45:20.672Z,58.70
2019-04-30T16:47:50.274Z,58.00
2019-04-30T16:50:20.406Z,58.80
2019-04-30T16:52:50.012Z,58.50
2019-04-30T16:55:19.658Z,58.60
2019-04-30T16:57:50.189Z,57.90
2019-04-30T17:00:20.853Z,57.70
2019-04-30T17:02:57.671Z,58.40
2019-04-30T17:05:48.018Z,57.70
2019-04-30T17:08:20.452Z,58.30
2019-04-30T17:10:54.395Z,57.30
2019-04-30T17:13:25.672Z,57.10
2019-04-30T17:16:12.024Z,57.20
2019-04-30T17:18:41.958Z,58.00
2019-04-30T17:21:11.551Z,57.10
2019-04-30T17:23:41.152Z,56.90
2019-04-30T17:26:10.855Z,57.50
2019-04-30T17:28:40.479Z,59.50
2019-04-30T17:31:10.093Z,58.80
2019-04-30T17:33:39.699Z,58.10
2019-04-30T17:36:11.113Z,57.90
2019-04-30T17:38:40.875Z,58.50
2019-04-30T17:41:10.546Z,57.30
2019-04-30T17:43:41.827Z,58.60
2019-04-30T17:46:11.458Z,56.20
2019-04-30T17:48:41.062Z,55.80
2019-04-30T17:51:10.688Z,56.80
2019-04-30T17:53:41.996Z,57.60
2019-04-30T17:56:11.632Z,58.60
2019-04-30T17:58:41.262Z,57.90
2019-04-30T18:01:11.272Z,58.60
2019-04-30T18:03:40.907Z,60.00
2019-04-30T18:06:10.576Z,60.00
2019-04-30T18:08:40.211Z,66.80
2019-04-30T18:11:09.888Z,70.00
2019-04-30T18:13:39.646Z,69.80
2019-04-30T18:16:09.585Z,68.40
2019-04-30T18:18:46.577Z,67.30
2019-04-30T18:21:31.130Z,69.60
2019-04-30T18:24:11.080Z,76.40
2019-04-30T18:26:51.127Z,76.00
2019-04-30T18:29:21.030Z,79.70
2019-04-30T18:31:50.885Z,80.40
2019-04-30T18:34:20.741Z,80.00
2019-04-30T18:36:51.212Z,83.00
2019-04-30T18:39:21.085Z,85.10
2019-04-30T18:41:50.969Z,85.30
2019-04-30T18:44:20.967Z,84.50
2019-04-30T18:46:50.583Z,82.00
2019-04-30T18:49:20.357Z,81.40
2019-04-30T18:51:50.239Z,82.30
2019-04-30T18:54:20.940Z,77.00
2019-04-30T18:56:50.817Z,78.70
2019-04-30T18:59:20.737Z,77.40
2019-04-30T19:01:50.577Z,81.60
2019-04-30T19:04:20.435Z,84.40
2019-04-30T19:06:51.957Z,83.70
2019-04-30T19:09:32.546Z,85.70
2019-04-30T19:12:06.370Z,85.60
2019-04-30T19:14:45.314Z,85.40
2019-04-30T19:17:22.733Z,82.90
2019-04-30T19:20:10.695Z,82.90
2019-04-30T19:22:40.568Z,85.60
2019-04-30T19:25:12.370Z,86.60
2019-04-30T19:27:42.569Z,87.50
2019-04-30T19:30:12.849Z,88.20
2019-04-30T19:32:42.679Z,84.40
2019-04-30T19:35:12.932Z,84.90
2019-04-30T19:37:42.599Z,85.10
2019-04-30T19:40:12.677Z,85.90
2019-04-30T19:42:42.278Z,86.40
2019-04-30T19:45:12.714Z,86.10
2019-04-30T19:47:42.436Z,85.10
2019-04-30T19:50:14.101Z,85.80
2019-04-30T19:52:44.156Z,84.80
2019-04-30T19:55:14.061Z,78.90
2019-04-30T19:57:43.661Z,80.80
2019-04-30T20:00:14.603Z,75.50
2019-04-30T20:02:44.263Z,74.20
2019-04-30T20:05:14.207Z,78.20
2019-04-30T20:07:43.819Z,80.70
2019-04-30T20:10:13.860Z,75.90
2019-04-30T20:12:43.491Z,78.80
2019-04-30T20:15:19.025Z,75.60
2019-04-30T20:17:45.331Z,76.30
2019-04-30T20:20:15.235Z,78.90
2019-04-30T20:22:44.870Z,79.90
2019-04-30T20:25:14.600Z,81.10
2019-04-30T20:27:44.231Z,81.60
2019-04-30T20:30:14.331Z,82.10
2019-04-30T20:32:43.967Z,83.50
2019-04-30T20:35:13.563Z,83.50
2019-04-30T20:38:00.531Z,83.30
2019-04-30T20:40:43.027Z,86.30
2019-04-30T20:43:03.131Z,83.30
2019-04-30T20:45:32.795Z,83.80
2019-04-30T20:48:02.430Z,83.70
2019-04-30T20:50:32.063Z,80.10
2019-04-30T20:53:01.666Z,78.70
2019-04-30T20:55:31.295Z,82.30
2019-04-30T20:58:00.898Z,83.40
2019-04-30T21:00:30.508Z,84.20
2019-04-30T21:03:00.116Z,83.40
2019-04-30T21:05:29.836Z,82.20
2019-04-30T21:07:59.594Z,85.00
2019-04-30T21:10:29.837Z,82.70
2019-04-30T21:12:59.507Z,82.30
2019-04-30T21:15:29.745Z,83.20
2019-04-30T21:17:59.459Z,84.40
2019-04-30T21:20:29.141Z,83.00
2019-04-30T21:22:59.692Z,85.60
2019-04-30T21:25:29.417Z,86.30
2019-04-30T21:27:59.915Z,87.30
2019-04-30T21:30:29.755Z,85.80
2019-04-30T21:33:01.578Z,85.00
2019-04-30T21:35:44.357Z,84.80
2019-04-30T21:38:13.998Z,84.60
2019-04-30T21:40:43.601Z,84.40
2019-04-30T21:43:13.182Z,86.20
2019-04-30T21:45:42.884Z,86.90
2019-04-30T21:48:12.626Z,85.60
2019-04-30T21:50:42.239Z,85.10
2019-04-30T21:53:11.879Z,86.50
2019-04-30T21:55:41.477Z,88.90
2019-04-30T21:58:11.073Z,87.20
2019-04-30T22:00:40.475Z,88.70
2019-04-30T22:03:10.222Z,89.30
2019-04-30T22:05:39.890Z,87.30
2019-04-30T22:08:09.518Z,89.50
2019-04-30T22:10:39.145Z,90.00
2019-04-30T22:13:08.995Z,89.70
2019-04-30T22:15:38.619Z,90.20
2019-04-30T22:18:08.251Z,90.10
2019-04-30T22:20:38.879Z,90.10
2019-04-30T22:23:08.663Z,89.10
2019-04-30T22:25:39.247Z,89.70
2019-04-30T22:28:09.029Z,89.90
2019-04-30T22:30:38.698Z,90.10
2019-04-30T22:33:08.913Z,90.30
2019-04-30T22:35:42.416Z,90.60
2019-04-30T22:38:13.655Z,90.80
2019-04-30T22:40:43.282Z,91.20
2019-04-30T22:43:12.970Z,91.10
2019-04-30T22:45:50.222Z,91.20
2019-04-30T22:48:19.853Z,91.10
2019-04-30T22:50:49.512Z,90.90
2019-04-30T22:53:19.128Z,91.00
2019-04-30T22:55:48.780Z,91.80
2019-04-30T22:58:18.414Z,91.60
2019-04-30T23:00:48.244Z,91.60
2019-04-30T23:03:19.537Z,92.10
2019-04-30T23:05:49.236Z,92.20
2019-04-30T23:08:18.890Z,91.90
2019-04-30T23:10:48.644Z,91.80
2019-04-30T23:13:18.943Z,91.90
2019-04-30T23:15:52.447Z,91.70
2019-04-30T23:18:22.087Z,91.50
2019-04-30T23:20:52.079Z,91.50
2019-04-30T23:23:21.737Z,91.50
2019-04-30T23:25:51.358Z,91.40
2019-04-30T23:28:20.994Z,91.40
2019-04-30T23:30:50.766Z,91.10
2019-04-30T23:33:20.357Z,91.00
2019-04-30T23:35:50.101Z,91.20
2019-04-30T23:38:19.686Z,91.40
2019-04-30T23:40:53.261Z,91.40
2019-04-30T23:43:23.215Z,91.60
2019-04-30T23:45:52.932Z,91.60
2019-04-30T23:48:22.521Z,91.00
2019-04-30T23:50:52.158Z,89.50
2019-04-30T23:53:21.738Z,85.60
2019-04-30T23:55:51.375Z,83.90
2019-04-30T23:58:21.013Z,82.70
